sensor_id;sensor_type;location;lat;lon;timestamp;pressure;altitude;pressure_sealevel;temperature;humidity
48015;BME280;33780;51.034;7.120;2023-04-10T00:02:11;101439.41;;;8.36;59.33
48015;BME280;33780;51.034;7.120;2023-04-10T00:04:36;101444.91;;;8.33;59.71
48015;BME280;33780;51.034;7.120;2023-04-10T00:07:01;101438.81;;;8.31;59.34
48015;BME280;33780;51.034;7.120;2023-04-10T00:09:26;101433.47;;;8.31;59.56
48015;BME280;33780;51.034;7.120;2023-04-10T00:11:53;101436.25;;;8.29;59.66
48015;BME280;33780;51.034;7.120;2023-04-10T00:14:19;101435.41;;;8.29;59.81
48015;BME280;33780;51.034;7.120;2023-04-10T00:16:47;101426.66;;;8.27;59.80
48015;BME280;33780;51.034;7.120;2023-04-10T00:19:13;101419.66;;;8.24;59.59
48015;BME280;33780;51.034;7.120;2023-04-10T00:21:38;101419.66;;;8.24;60.03
48015;BME280;33780;51.034;7.120;2023-04-10T00:24:03;101411.03;;;8.21;59.83
48015;BME280;33780;51.034;7.120;2023-04-10T00:26:29;101412.84;;;8.20;59.80
48015;BME280;33780;51.034;7.120;2023-04-10T00:28:54;101419.22;;;8.17;60.05
48015;BME280;33780;51.034;7.120;2023-04-10T00:31:20;101419.22;;;8.17;59.69
48015;BME280;33780;51.034;7.120;2023-04-10T00:33:45;101421.88;;;8.17;60.05
48015;BME280;33780;51.034;7.120;2023-04-10T00:36:10;101416.75;;;8.14;59.98
48015;BME280;33780;51.034;7.120;2023-04-10T00:38:36;101408.00;;;8.12;60.04
48015;BME280;33780;51.034;7.120;2023-04-10T00:41:02;101400.22;;;8.09;60.35
48015;BME280;33780;51.034;7.120;2023-04-10T00:43:27;101406.50;;;8.08;59.89
48015;BME280;33780;51.034;7.120;2023-04-10T00:45:52;101398.56;;;8.07;60.38
48015;BME280;33780;51.034;7.120;2023-04-10T00:48:18;101393.34;;;8.05;60.48
48015;BME280;33780;51.034;7.120;2023-04-10T00:50:45;101392.59;;;8.03;60.43
48015;BME280;33780;51.034;7.120;2023-04-10T00:53:10;101387.38;;;8.02;60.21
48015;BME280;33780;51.034;7.120;2023-04-10T00:55:36;101391.94;;;8.00;60.46
48015;BME280;33780;51.034;7.120;2023-04-10T00:58:01;101399.19;;;7.98;60.42
48015;BME280;33780;51.034;7.120;2023-04-10T01:00:26;101391.28;;;7.96;60.56
48015;BME280;33780;51.034;7.120;2023-04-10T01:02:53;101389.69;;;7.94;60.34
48015;BME280;33780;51.034;7.120;2023-04-10T01:05:19;101384.47;;;7.92;60.16
48015;BME280;33780;51.034;7.120;2023-04-10T01:10:37;101384.94;;;7.84;60.67
48015;BME280;33780;51.034;7.120;2023-04-10T01:13:16;101390.44;;;7.81;60.96
48015;BME280;33780;51.034;7.120;2023-04-10T01:15:47;101381.59;;;7.81;60.79
48015;BME280;33780;51.034;7.120;2023-04-10T01:18:36;101380.75;;;7.80;60.99
48015;BME280;33780;51.034;7.120;2023-04-10T01:21:07;101383.41;;;7.80;60.81
48015;BME280;33780;51.034;7.120;2023-04-10T01:23:53;101380.09;;;7.77;61.08
48015;BME280;33780;51.034;7.120;2023-04-10T01:26:38;101370.50;;;7.74;60.49
48015;BME280;33780;51.034;7.120;2023-04-10T01:29:08;101366.97;;;7.74;61.10
48015;BME280;33780;51.034;7.120;2023-04-10T01:31:45;101366.28;;;7.70;60.99
48015;BME280;33780;51.034;7.120;2023-04-10T01:34:23;101366.59;;;7.66;61.28
48015;BME280;33780;51.034;7.120;2023-04-10T01:36:58;101357.75;;;7.65;61.72
48015;BME280;33780;51.034;7.120;2023-04-10T01:39:25;101344.53;;;7.64;61.33
48015;BME280;33780;51.034;7.120;2023-04-10T01:41:53;101333.97;;;7.62;61.08
48015;BME280;33780;51.034;7.120;2023-04-10T01:44:23;101339.50;;;7.59;61.12
48015;BME280;33780;51.034;7.120;2023-04-10T01:46:54;101341.41;;;7.57;61.47
48015;BME280;33780;51.034;7.120;2023-04-10T01:49:22;101345.88;;;7.56;61.34
48015;BME280;33780;51.034;7.120;2023-04-10T01:51:50;101346.84;;;7.55;61.44
48015;BME280;33780;51.034;7.120;2023-04-10T01:54:16;101337.19;;;7.53;61.36
48015;BME280;33780;51.034;7.120;2023-04-10T01:56:41;101342.63;;;7.51;61.79
48015;BME280;33780;51.034;7.120;2023-04-10T01:59:06;101340.16;;;7.48;61.49
48015;BME280;33780;51.034;7.120;2023-04-10T02:01:32;101335.88;;;7.46;61.34
48015;BME280;33780;51.034;7.120;2023-04-10T02:03:57;101338.66;;;7.44;61.41
48015;BME280;33780;51.034;7.120;2023-04-10T02:06:43;101322.03;;;7.41;61.75
48015;BME280;33780;51.034;7.120;2023-04-10T02:09:20;101317.75;;;7.38;61.76
48015;BME280;33780;51.034;7.120;2023-04-10T02:12:01;101320.56;;;7.35;62.26
48015;BME280;33780;51.034;7.120;2023-04-10T02:14:30;101318.00;;;7.34;61.92
48015;BME280;33780;51.034;7.120;2023-04-10T02:16:56;101316.31;;;7.33;61.71
48015;BME280;33780;51.034;7.120;2023-04-10T02:19:24;101320.78;;;7.32;61.83
48015;BME280;33780;51.034;7.120;2023-04-10T02:21:51;101311.94;;;7.32;62.32
48015;BME280;33780;51.034;7.120;2023-04-10T02:24:17;101305.09;;;7.27;62.23
48015;BME280;33780;51.034;7.120;2023-04-10T02:26:47;101317.66;;;7.25;62.09
48015;BME280;33780;51.034;7.120;2023-04-10T02:29:13;101306.25;;;7.23;62.22
48015;BME280;33780;51.034;7.120;2023-04-10T02:31:40;101311.66;;;7.22;62.68
48015;BME280;33780;51.034;7.120;2023-04-10T02:34:05;101309.97;;;7.21;62.76
48015;BME280;33780;51.034;7.120;2023-04-10T02:36:31;101311.88;;;7.19;62.74
48015;BME280;33780;51.034;7.120;2023-04-10T02:38:57;101302.25;;;7.16;62.51
48015;BME280;33780;51.034;7.120;2023-04-10T02:41:22;101311.19;;;7.15;62.22
48015;BME280;33780;51.034;7.120;2023-04-10T02:43:48;101311.19;;;7.15;61.92
48015;BME280;33780;51.034;7.120;2023-04-10T02:46:13;101310.31;;;7.15;62.52
48015;BME280;33780;51.034;7.120;2023-04-10T02:48:39;101305.09;;;7.13;62.51
48015;BME280;33780;51.034;7.120;2023-04-10T02:51:04;101316.59;;;7.14;62.88
48015;BME280;33780;51.034;7.120;2023-04-10T02:53:32;101312.31;;;7.11;62.61
48015;BME280;33780;51.034;7.120;2023-04-10T02:55:57;101311.47;;;7.11;62.86
48015;BME280;33780;51.034;7.120;2023-04-10T02:58:22;101308.91;;;7.09;62.34
48015;BME280;33780;51.034;7.120;2023-04-10T03:00:48;101321.34;;;7.09;62.83
48015;BME280;33780;51.034;7.120;2023-04-10T03:03:15;101307.28;;;7.07;62.68
48015;BME280;33780;51.034;7.120;2023-04-10T03:05:40;101311.84;;;7.05;62.95
48015;BME280;33780;51.034;7.120;2023-04-10T03:08:05;101303.97;;;7.03;63.12
48015;BME280;33780;51.034;7.120;2023-04-10T03:10:31;101303.22;;;7.01;63.23
48015;BME280;33780;51.034;7.120;2023-04-10T03:12:56;101299.69;;;7.01;63.36
48015;BME280;33780;51.034;7.120;2023-04-10T03:15:21;101296.34;;;6.97;63.76
48015;BME280;33780;51.034;7.120;2023-04-10T03:17:46;101295.59;;;6.95;63.36
48015;BME280;33780;51.034;7.120;2023-04-10T03:20:12;101288.56;;;6.94;63.46
48015;BME280;33780;51.034;7.120;2023-04-10T03:22:37;101292.06;;;6.94;63.79
48015;BME280;33780;51.034;7.120;2023-04-10T03:25:04;101282.47;;;6.92;62.96
48015;BME280;33780;51.034;7.120;2023-04-10T03:27:29;101287.81;;;6.92;63.53
48015;BME280;33780;51.034;7.120;2023-04-10T03:29:56;101282.56;;;6.90;63.54
48015;BME280;33780;51.034;7.120;2023-04-10T03:32:21;101287.03;;;6.90;63.30
48015;BME280;33780;51.034;7.120;2023-04-10T03:34:46;101271.19;;;6.88;63.60
48015;BME280;33780;51.034;7.120;2023-04-10T03:37:12;101273.09;;;6.86;63.59
48015;BME280;33780;51.034;7.120;2023-04-10T03:39:37;101256.25;;;6.86;63.97
48015;BME280;33780;51.034;7.120;2023-04-10T03:42:02;101260.81;;;6.84;63.62
48015;BME280;33780;51.034;7.120;2023-04-10T03:44:27;101259.28;;;6.80;63.71
48015;BME280;33780;51.034;7.120;2023-04-10T03:46:53;101254.91;;;6.79;63.72
48015;BME280;33780;51.034;7.120;2023-04-10T03:49:18;101253.31;;;6.76;63.84
48015;BME280;33780;51.034;7.120;2023-04-10T03:51:43;101248.84;;;6.77;63.58
48015;BME280;33780;51.034;7.120;2023-04-10T03:54:08;101257.00;;;6.74;64.16
48015;BME280;33780;51.034;7.120;2023-04-10T03:56:34;101254.34;;;6.74;64.03
48015;BME280;33780;51.034;7.120;2023-04-10T03:59:00;101249.97;;;6.73;63.94
48015;BME280;33780;51.034;7.120;2023-04-10T04:01:25;101247.31;;;6.73;64.26
48015;BME280;33780;51.034;7.120;2023-04-10T04:03:50;101244.84;;;6.70;64.32
48015;BME280;33780;51.034;7.120;2023-04-10T04:06:15;101250.28;;;6.68;64.78
48015;BME280;33780;51.034;7.120;2023-04-10T04:08:41;101240.59;;;6.67;64.09
48015;BME280;33780;51.034;7.120;2023-04-10T04:11:06;101236.13;;;6.68;64.48
48015;BME280;33780;51.034;7.120;2023-04-10T04:13:31;101237.94;;;6.67;64.17
48015;BME280;33780;51.034;7.120;2023-04-10T04:15:57;101231.00;;;6.64;64.79
48015;BME280;33780;51.034;7.120;2023-04-10T04:18:22;101231.91;;;6.63;64.32
48015;BME280;33780;51.034;7.120;2023-04-10T04:20:47;101229.25;;;6.63;64.71
48015;BME280;33780;51.034;7.120;2023-04-10T04:23:12;101233.81;;;6.61;64.68
48015;BME280;33780;51.034;7.120;2023-04-10T04:25:38;101233.06;;;6.59;64.46
48015;BME280;33780;51.034;7.120;2023-04-10T04:28:03;101234.94;;;6.57;65.23
48015;BME280;33780;51.034;7.120;2023-04-10T04:30:28;101237.72;;;6.56;65.02
48015;BME280;33780;51.034;7.120;2023-04-10T04:32:53;101238.66;;;6.55;64.64
48015;BME280;33780;51.034;7.120;2023-04-10T04:35:19;101243.97;;;6.55;64.52
48015;BME280;33780;51.034;7.120;2023-04-10T04:37:44;101226.22;;;6.55;65.02
48015;BME280;33780;51.034;7.120;2023-04-10T04:40:10;101235.91;;;6.56;65.01
48015;BME280;33780;51.034;7.120;2023-04-10T04:42:35;101233.34;;;6.55;64.96
48015;BME280;33780;51.034;7.120;2023-04-10T04:45:01;101229.84;;;6.54;64.09
48015;BME280;33780;51.034;7.120;2023-04-10T04:47:26;101227.16;;;6.54;65.28
48015;BME280;33780;51.034;7.120;2023-04-10T04:49:52;101228.03;;;6.55;64.25
48015;BME280;33780;51.034;7.120;2023-04-10T04:52:17;101235.06;;;6.56;64.41
48015;BME280;33780;51.034;7.120;2023-04-10T04:54:42;101234.19;;;6.55;64.11
48015;BME280;33780;51.034;7.120;2023-04-10T04:57:07;101234.19;;;6.55;65.05
48015;BME280;33780;51.034;7.120;2023-04-10T04:59:33;101236.75;;;6.57;64.82
48015;BME280;33780;51.034;7.120;2023-04-10T05:01:59;101234.84;;;6.59;64.74
48015;BME280;33780;51.034;7.120;2023-04-10T05:04:24;101232.19;;;6.59;64.74
48015;BME280;33780;51.034;7.120;2023-04-10T05:06:49;101228.59;;;6.60;64.95
48015;BME280;33780;51.034;7.120;2023-04-10T05:09:15;101232.09;;;6.60;65.05
48015;BME280;33780;51.034;7.120;2023-04-10T05:11:40;101233.91;;;6.60;65.07
48015;BME280;33780;51.034;7.120;2023-04-10T05:14:05;101229.44;;;6.60;65.05
48015;BME280;33780;51.034;7.120;2023-04-10T05:16:30;101224.13;;;6.60;64.96
48015;BME280;33780;51.034;7.120;2023-04-10T05:18:56;101230.19;;;6.62;64.83
48015;BME280;33780;51.034;7.120;2023-04-10T05:21:21;101230.09;;;6.64;65.37
48015;BME280;33780;51.034;7.120;2023-04-10T05:23:46;101223.88;;;6.65;65.90
48015;BME280;33780;51.034;7.120;2023-04-10T05:26:11;101231.75;;;6.66;64.99
48015;BME280;33780;51.034;7.120;2023-04-10T05:28:37;101233.38;;;6.69;64.85
48015;BME280;33780;51.034;7.120;2023-04-10T05:31:02;101242.94;;;6.72;65.25
48015;BME280;33780;51.034;7.120;2023-04-10T05:33:27;101234.03;;;6.73;65.59
48015;BME280;33780;51.034;7.120;2023-04-10T05:35:52;101232.13;;;6.75;65.45
48015;BME280;33780;51.034;7.120;2023-04-10T05:38:18;101238.09;;;6.78;64.83
48015;BME280;33780;51.034;7.120;2023-04-10T05:40:44;101231.56;;;6.84;64.61
48015;BME280;33780;51.034;7.120;2023-04-10T05:43:09;101240.00;;;6.90;65.05
48015;BME280;33780;51.034;7.120;2023-04-10T05:45:35;101226.31;;;6.96;65.21
48015;BME280;33780;51.034;7.120;2023-04-10T05:48:00;101233.94;;;7.03;64.64
48015;BME280;33780;51.034;7.120;2023-04-10T05:50:25;101229.81;;;7.11;64.72
48015;BME280;33780;51.034;7.120;2023-04-10T05:52:50;101234.56;;;7.20;64.17
48015;BME280;33780;51.034;7.120;2023-04-10T05:55:16;101236.53;;;7.31;63.97
48015;BME280;33780;51.034;7.120;2023-04-10T05:57:41;101235.00;;;7.41;63.76
48015;BME280;33780;51.034;7.120;2023-04-10T06:00:07;101225.56;;;7.50;63.30
48015;BME280;33780;51.034;7.120;2023-04-10T06:02:33;101225.81;;;7.60;63.69
48015;BME280;33780;51.034;7.120;2023-04-10T06:04:59;101235.00;;;7.68;63.24
48015;BME280;33780;51.034;7.120;2023-04-10T06:07:24;101237.19;;;7.76;62.96
48015;BME280;33780;51.034;7.120;2023-04-10T06:09:51;101237.53;;;7.84;62.89
48015;BME280;33780;51.034;7.120;2023-04-10T06:12:16;101234.38;;;7.92;62.27
48015;BME280;33780;51.034;7.120;2023-04-10T06:14:41;101234.69;;;8.00;62.76
48015;BME280;33780;51.034;7.120;2023-04-10T06:17:07;101230.66;;;8.07;62.33
48015;BME280;33780;51.034;7.120;2023-04-10T06:19:32;101228.44;;;8.13;62.16
48015;BME280;33780;51.034;7.120;2023-04-10T06:21:58;101221.84;;;8.19;62.19
48015;BME280;33780;51.034;7.120;2023-04-10T06:24:23;101219.59;;;8.26;61.94
48015;BME280;33780;51.034;7.120;2023-04-10T06:26:48;101212.91;;;8.33;61.94
48015;BME280;33780;51.034;7.120;2023-04-10T06:29:13;101218.69;;;8.39;61.70
48015;BME280;33780;51.034;7.120;2023-04-10T06:31:39;101221.91;;;8.44;61.41
48015;BME280;33780;51.034;7.120;2023-04-10T06:34:04;101220.53;;;8.52;61.90
48015;BME280;33780;51.034;7.120;2023-04-10T06:36:30;101213.91;;;8.57;60.90
48015;BME280;33780;51.034;7.120;2023-04-10T06:38:55;101216.16;;;8.63;61.19
48015;BME280;33780;51.034;7.120;2023-04-10T06:41:20;101209.53;;;8.69;60.74
48015;BME280;33780;51.034;7.120;2023-04-10T06:43:46;101209.94;;;8.75;60.61
48015;BME280;33780;51.034;7.120;2023-04-10T06:46:12;101211.34;;;8.81;60.36
48015;BME280;33780;51.034;7.120;2023-04-10T06:48:37;101214.31;;;8.89;59.63
48015;BME280;33780;51.034;7.120;2023-04-10T06:51:48;101220.06;;;8.96;60.16
48015;BME280;33780;51.034;7.120;2023-04-10T06:53:55;101221.22;;;9.04;59.77
48015;BME280;33780;51.034;7.120;2023-04-10T06:56:20;101225.16;;;9.12;59.79
48015;BME280;33780;51.034;7.120;2023-04-10T06:58:46;101221.09;;;9.19;59.30
48015;BME280;33780;51.034;7.120;2023-04-10T07:01:11;101225.03;;;9.26;59.43
48015;BME280;33780;51.034;7.120;2023-04-10T07:03:37;101220.94;;;9.33;58.95
48015;BME280;33780;51.034;7.120;2023-04-10T07:06:02;101217.72;;;9.41;58.68
48015;BME280;33780;51.034;7.120;2023-04-10T07:08:28;101219.81;;;9.48;58.83
48015;BME280;33780;51.034;7.120;2023-04-10T07:11:02;101220.97;;;9.57;58.71
48015;BME280;33780;51.034;7.120;2023-04-10T07:13:30;101215.16;;;9.63;58.27
48015;BME280;33780;51.034;7.120;2023-04-10T07:15:56;101217.19;;;9.72;57.82
48015;BME280;33780;51.034;7.120;2023-04-10T07:18:21;101216.59;;;9.80;57.77
48015;BME280;33780;51.034;7.120;2023-04-10T07:20:46;101211.63;;;9.86;57.73
48015;BME280;33780;51.034;7.120;2023-04-10T07:23:12;101212.78;;;9.95;57.37
48015;BME280;33780;51.034;7.120;2023-04-10T07:25:40;101205.97;;;10.02;57.43
48015;BME280;33780;51.034;7.120;2023-04-10T07:28:05;101196.44;;;10.11;57.12
48015;BME280;33780;51.034;7.120;2023-04-10T07:30:30;101193.16;;;10.18;56.92
48015;BME280;33780;51.034;7.120;2023-04-10T07:32:56;101192.81;;;10.23;55.95
48015;BME280;33780;51.034;7.120;2023-04-10T07:35:21;101197.47;;;10.32;56.53
48015;BME280;33780;51.034;7.120;2023-04-10T07:37:46;101184.34;;;10.40;56.12
48015;BME280;33780;51.034;7.120;2023-04-10T07:40:15;101188.28;;;10.47;55.93
48015;BME280;33780;51.034;7.120;2023-04-10T07:42:40;101173.69;;;10.51;55.93
48015;BME280;33780;51.034;7.120;2023-04-10T07:45:06;101182.06;;;10.58;55.81
48015;BME280;33780;51.034;7.120;2023-04-10T07:47:32;101173.69;;;10.63;55.08
48015;BME280;33780;51.034;7.120;2023-04-10T07:49:57;101178.56;;;10.69;55.40
48015;BME280;33780;51.034;7.120;2023-04-10T07:52:23;101164.06;;;10.71;54.81
48015;BME280;33780;51.034;7.120;2023-04-10T07:54:48;101169.91;;;10.76;54.79
48015;BME280;33780;51.034;7.120;2023-04-10T07:57:13;101161.53;;;10.81;54.98
48015;BME280;33780;51.034;7.120;2023-04-10T07:59:39;101160.31;;;10.85;54.72
48015;BME280;33780;51.034;7.120;2023-04-10T08:02:05;101160.31;;;10.85;54.41
48015;BME280;33780;51.034;7.120;2023-04-10T08:04:30;101153.59;;;10.90;54.36
48015;BME280;33780;51.034;7.120;2023-04-10T08:06:55;101150.66;;;10.94;54.21
48015;BME280;33780;51.034;7.120;2023-04-10T08:09:21;101148.63;;;10.97;54.39
48015;BME280;33780;51.034;7.120;2023-04-10T08:11:46;101147.38;;;11.01;54.31
48015;BME280;33780;51.034;7.120;2023-04-10T08:14:11;101146.28;;;11.04;53.49
48015;BME280;33780;51.034;7.120;2023-04-10T08:16:37;101143.09;;;11.10;53.43
48015;BME280;33780;51.034;7.120;2023-04-10T08:19:03;101133.84;;;11.14;54.00
48015;BME280;33780;51.034;7.120;2023-04-10T08:21:29;101133.34;;;11.20;53.69
48015;BME280;33780;51.034;7.120;2023-04-10T08:23:57;101132.84;;;11.26;53.32
48015;BME280;33780;51.034;7.120;2023-04-10T08:26:24;101139.41;;;11.33;53.53
48015;BME280;33780;51.034;7.120;2023-04-10T08:28:51;101145.22;;;11.38;52.84
48015;BME280;33780;51.034;7.120;2023-04-10T08:31:17;101130.34;;;11.45;52.44
48015;BME280;33780;51.034;7.120;2023-04-10T08:33:43;101131.53;;;11.53;52.41
48015;BME280;33780;51.034;7.120;2023-04-10T08:36:09;101130.91;;;11.60;51.61
48015;BME280;33780;51.034;7.120;2023-04-10T08:38:35;101124.91;;;11.68;51.65
48015;BME280;33780;51.034;7.120;2023-04-10T08:41:01;101124.13;;;11.77;50.79
48015;BME280;33780;51.034;7.120;2023-04-10T08:43:26;101125.22;;;11.86;51.06
48015;BME280;33780;51.034;7.120;2023-04-10T08:45:52;101119.31;;;11.92;51.20
48015;BME280;33780;51.034;7.120;2023-04-10T08:48:18;101107.22;;;11.97;50.86
48015;BME280;33780;51.034;7.120;2023-04-10T08:50:45;101109.97;;;12.07;50.57
48015;BME280;33780;51.034;7.120;2023-04-10T08:53:12;101114.66;;;12.15;50.81
48015;BME280;33780;51.034;7.120;2023-04-10T08:55:39;101109.63;;;12.21;50.14
48015;BME280;33780;51.034;7.120;2023-04-10T08:58:06;101100.06;;;12.28;50.44
48015;BME280;33780;51.034;7.120;2023-04-10T09:00:35;101092.31;;;12.35;49.90
48015;BME280;33780;51.034;7.120;2023-04-10T09:03:03;101084.47;;;12.43;50.21
48015;BME280;33780;51.034;7.120;2023-04-10T09:05:32;101087.56;;;12.48;50.44
48015;BME280;33780;51.034;7.120;2023-04-10T09:07:58;101078.25;;;12.52;50.35
48015;BME280;33780;51.034;7.120;2023-04-10T09:10:23;101068.69;;;12.59;49.94
48015;BME280;33780;51.034;7.120;2023-04-10T09:12:48;101069.28;;;12.63;49.02
48015;BME280;33780;51.034;7.120;2023-04-10T09:15:14;101069.56;;;12.69;49.06
48015;BME280;33780;51.034;7.120;2023-04-10T09:18:00;101050.25;;;12.76;48.48
48015;BME280;33780;51.034;7.120;2023-04-10T09:20:29;101054.47;;;12.78;48.21
48015;BME280;33780;51.034;7.120;2023-04-10T09:22:55;101048.97;;;12.80;47.26
48015;BME280;33780;51.034;7.120;2023-04-10T09:25:33;101036.53;;;12.88;48.49
48015;BME280;33780;51.034;7.120;2023-04-10T09:28:01;101042.34;;;12.93;48.00
48015;BME280;33780;51.034;7.120;2023-04-10T09:30:38;101041.50;;;13.02;46.35
48015;BME280;33780;51.034;7.120;2023-04-10T09:33:23;101047.16;;;13.09;47.40
48015;BME280;33780;51.034;7.120;2023-04-10T09:35:49;101036.28;;;13.11;45.51
48015;BME280;33780;51.034;7.120;2023-04-10T09:38:25;101035.88;;;13.15;46.28
48015;BME280;33780;51.034;7.120;2023-04-10T09:41:05;101037.31;;;13.19;46.77
48015;BME280;33780;51.034;7.120;2023-04-10T09:43:30;101038.00;;;13.21;45.63
48015;BME280;33780;51.034;7.120;2023-04-10T09:45:56;101038.28;;;13.28;46.12
48015;BME280;33780;51.034;7.120;2023-04-10T09:48:22;101045.94;;;13.33;46.15
48015;BME280;33780;51.034;7.120;2023-04-10T09:50:48;101043.13;;;13.34;43.73
48015;BME280;33780;51.034;7.120;2023-04-10T09:53:16;101038.00;;;13.41;45.70
48015;BME280;33780;51.034;7.120;2023-04-10T09:55:46;101036.72;;;13.45;45.40
48015;BME280;33780;51.034;7.120;2023-04-10T09:58:12;101030.09;;;13.49;46.04
48015;BME280;33780;51.034;7.120;2023-04-10T10:00:43;101021.59;;;13.53;46.33
48015;BME280;33780;51.034;7.120;2023-04-10T10:03:11;101016.47;;;13.60;46.18
48015;BME280;33780;51.034;7.120;2023-04-10T10:05:38;101015.94;;;13.66;46.07
48015;BME280;33780;51.034;7.120;2023-04-10T10:08:04;101016.19;;;13.73;45.97
48015;BME280;33780;51.034;7.120;2023-04-10T10:10:30;101018.97;;;13.81;45.76
48015;BME280;33780;51.034;7.120;2023-04-10T10:12:59;101007.66;;;13.87;44.28
48015;BME280;33780;51.034;7.120;2023-04-10T10:15:32;100997.84;;;13.96;44.15
48015;BME280;33780;51.034;7.120;2023-04-10T10:18:06;100993.59;;;14.03;44.81
48015;BME280;33780;51.034;7.120;2023-04-10T10:20:34;101004.59;;;14.09;45.47
48015;BME280;33780;51.034;7.120;2023-04-10T10:23:05;100998.63;;;14.15;45.19
48015;BME280;33780;51.034;7.120;2023-04-10T10:25:37;100991.13;;;14.19;44.22
48015;BME280;33780;51.034;7.120;2023-04-10T10:28:03;100978.75;;;14.26;44.51
48015;BME280;33780;51.034;7.120;2023-04-10T10:30:33;100986.22;;;14.32;44.55
48015;BME280;33780;51.034;7.120;2023-04-10T10:32:59;100974.19;;;14.36;44.11
48015;BME280;33780;51.034;7.120;2023-04-10T10:35:26;100980.81;;;14.42;44.00
48015;BME280;33780;51.034;7.120;2023-04-10T10:37:52;100962.06;;;14.50;43.01
48015;BME280;33780;51.034;7.120;2023-04-10T10:40:28;100963.03;;;14.59;43.63
48015;BME280;33780;51.034;7.120;2023-04-10T10:45:58;100935.00;;;14.69;43.20
48015;BME280;33780;51.034;7.120;2023-04-10T10:48:26;100943.66;;;14.73;41.60
48015;BME280;33780;51.034;7.120;2023-04-10T10:53:31;100924.16;;;14.97;40.83
48015;BME280;33780;51.034;7.120;2023-04-10T10:55:57;100913.59;;;15.03;40.99
48015;BME280;33780;51.034;7.120;2023-04-10T10:58:54;100896.50;;;15.13;40.99
48015;BME280;33780;51.034;7.120;2023-04-10T11:01:21;100888.28;;;15.22;41.13
48015;BME280;33780;51.034;7.120;2023-04-10T11:03:47;100887.13;;;15.25;41.06
48015;BME280;33780;51.034;7.120;2023-04-10T11:06:17;100881.66;;;15.34;40.82
48015;BME280;33780;51.034;7.120;2023-04-10T11:08:47;100876.09;;;15.36;41.30
48015;BME280;33780;51.034;7.120;2023-04-10T11:11:26;100877.28;;;15.41;41.12
48015;BME280;33780;51.034;7.120;2023-04-10T11:16:20;100847.69;;;15.50;41.79
48015;BME280;33780;51.034;7.120;2023-04-10T11:21:19;100838.50;;;15.60;41.43
48015;BME280;33780;51.034;7.120;2023-04-10T11:26:35;100839.75;;;15.74;41.05
48015;BME280;33780;51.034;7.120;2023-04-10T11:29:02;100839.09;;;15.80;41.08
48015;BME280;33780;51.034;7.120;2023-04-10T11:31:29;100821.75;;;15.83;40.86
48015;BME280;33780;51.034;7.120;2023-04-10T11:36:22;100818.88;;;15.92;40.48
48015;BME280;33780;51.034;7.120;2023-04-10T11:41:19;100802.41;;;16.04;39.92
48015;BME280;33780;51.034;7.120;2023-04-10T11:43:44;100800.22;;;16.07;39.15
48015;BME280;33780;51.034;7.120;2023-04-10T11:46:10;100799.03;;;16.10;37.57
48015;BME280;33780;51.034;7.120;2023-04-10T11:48:35;100806.97;;;16.11;38.11
48015;BME280;33780;51.034;7.120;2023-04-10T11:51:09;100800.91;;;16.17;38.81
48015;BME280;33780;51.034;7.120;2023-04-10T11:53:36;100795.84;;;16.22;38.51
48015;BME280;33780;51.034;7.120;2023-04-10T11:56:02;100783.38;;;16.21;38.44
48015;BME280;33780;51.034;7.120;2023-04-10T11:58:29;100789.59;;;16.22;38.62
48015;BME280;33780;51.034;7.120;2023-04-10T12:00:57;100787.59;;;16.24;38.02
48015;BME280;33780;51.034;7.120;2023-04-10T12:03:49;100789.44;;;16.23;38.20
48015;BME280;33780;51.034;7.120;2023-04-10T12:06:16;100782.69;;;16.19;37.71
48015;BME280;33780;51.034;7.120;2023-04-10T12:08:45;100772.06;;;16.18;38.02
48015;BME280;33780;51.034;7.120;2023-04-10T12:11:13;100771.56;;;16.22;38.24
48015;BME280;33780;51.034;7.120;2023-04-10T12:13:41;100769.69;;;16.23;38.44
48015;BME280;33780;51.034;7.120;2023-04-10T12:16:13;100764.78;;;16.26;38.99
48015;BME280;33780;51.034;7.120;2023-04-10T12:18:39;100753.47;;;16.31;39.03
48015;BME280;33780;51.034;7.120;2023-04-10T12:21:05;100758.56;;;16.34;38.49
48015;BME280;33780;51.034;7.120;2023-04-10T12:23:31;100761.78;;;16.38;38.13
48015;BME280;33780;51.034;7.120;2023-04-10T12:26:13;100747.09;;;16.40;38.18
48015;BME280;33780;51.034;7.120;2023-04-10T12:28:40;100746.06;;;16.41;38.17
48015;BME280;33780;51.034;7.120;2023-04-10T12:31:06;100730.38;;;16.45;38.33
48015;BME280;33780;51.034;7.120;2023-04-10T12:33:31;100729.19;;;16.47;37.71
48015;BME280;33780;51.034;7.120;2023-04-10T12:35:57;100724.28;;;16.51;36.47
48015;BME280;33780;51.034;7.120;2023-04-10T12:41:01;100710.28;;;16.55;36.08
48015;BME280;33780;51.034;7.120;2023-04-10T12:43:31;100711.63;;;16.59;36.94
48015;BME280;33780;51.034;7.120;2023-04-10T12:45:57;100700.28;;;16.64;37.20
48015;BME280;33780;51.034;7.120;2023-04-10T12:48:23;100707.06;;;16.68;37.88
48015;BME280;33780;51.034;7.120;2023-04-10T12:50:48;100701.47;;;16.78;36.42
48015;BME280;33780;51.034;7.120;2023-04-10T12:53:14;100699.59;;;16.86;36.81
48015;BME280;33780;51.034;7.120;2023-04-10T12:55:39;100694.84;;;16.97;36.96
48015;BME280;33780;51.034;7.120;2023-04-10T12:58:16;100689.56;;;17.03;37.33
48015;BME280;33780;51.034;7.120;2023-04-10T13:00:42;100686.38;;;17.08;37.07
48015;BME280;33780;51.034;7.120;2023-04-10T13:03:07;100683.78;;;17.14;36.55
48015;BME280;33780;51.034;7.120;2023-04-10T13:05:32;100686.81;;;17.19;36.72
48015;BME280;33780;51.034;7.120;2023-04-10T13:07:58;100677.34;;;17.24;37.11
48015;BME280;33780;51.034;7.120;2023-04-10T13:10:23;100676.63;;;17.30;37.17
48015;BME280;33780;51.034;7.120;2023-04-10T13:12:48;100677.59;;;17.37;37.60
48015;BME280;33780;51.034;7.120;2023-04-10T13:15:13;100672.16;;;17.45;37.76
48015;BME280;33780;51.034;7.120;2023-04-10T13:17:40;100662.66;;;17.49;36.34
48015;BME280;33780;51.034;7.120;2023-04-10T13:20:07;100657.38;;;17.56;36.74